sensor_id;sensor_type;location;lat;lon;timestamp;P1;durP1;ratioP1;P2;durP2;ratioP2
53875;SDS011;39789;53.216;5.624;2023-02-15T00:01:33;776.78;;;67.20;;
53875;SDS011;39789;53.216;5.624;2023-02-15T00:04:00;839.45;;;74.95;;
53875;SDS011;39789;53.216;5.624;2023-02-15T00:06:26;742.88;;;62.40;;
53875;SDS011;39789;53.216;5.624;2023-02-15T00:08:52;604.30;;;52.72;;
53875;SDS011;39789;53.216;5.624;2023-02-15T00:11:18;740.88;;;58.30;;
53875;SDS011;39789;53.216;5.624;2023-02-15T00:14:20;648.47;;;57.25;;
53875;SDS011;39789;53.216;5.624;2023-02-15T00:16:47;531.20;;;45.83;;
53875;SDS011;39789;53.216;5.624;2023-02-15T00:19:15;614.60;;;54.95;;
53875;SDS011;39789;53.216;5.624;2023-02-15T00:21:43;436.83;;;42.53;;
53875;SDS011;39789;53.216;5.624;2023-02-15T00:24:09;554.67;;;48.75;;
53875;SDS011;39789;53.216;5.624;2023-02-15T00:26:37;481.85;;;47.10;;
53875;SDS011;39789;53.216;5.624;2023-02-15T00:29:04;458.58;;;44.47;;
53875;SDS011;39789;53.216;5.624;2023-02-15T00:31:31;400.23;;;43.97;;
53875;SDS011;39789;53.216;5.624;2023-02-15T00:34:01;443.45;;;45.60;;
53875;SDS011;39789;53.216;5.624;2023-02-15T00:36:31;560.35;;;54.47;;
53875;SDS011;39789;53.216;5.624;2023-02-15T00:38:57;423.63;;;42.28;;
53875;SDS011;39789;53.216;5.624;2023-02-15T00:41:23;437.42;;;47.15;;
53875;SDS011;39789;53.216;5.624;2023-02-15T00:43:49;306.80;;;40.45;;
53875;SDS011;39789;53.216;5.624;2023-02-15T00:46:14;423.45;;;46.15;;
53875;SDS011;39789;53.216;5.624;2023-02-15T00:48:40;435.08;;;47.08;;
53875;SDS011;39789;53.216;5.624;2023-02-15T00:51:05;723.80;;;63.40;;
53875;SDS011;39789;53.216;5.624;2023-02-15T00:53:31;741.33;;;62.67;;
53875;SDS011;39789;53.216;5.624;2023-02-15T00:55:57;909.03;;;73.15;;
53875;SDS011;39789;53.216;5.624;2023-02-15T00:58:23;826.60;;;71.28;;
53875;SDS011;39789;53.216;5.624;2023-02-15T01:00:49;1017.17;;;80.43;;
53875;SDS011;39789;53.216;5.624;2023-02-15T01:03:15;919.80;;;77.25;;
53875;SDS011;39789;53.216;5.624;2023-02-15T01:05:42;1329.35;;;105.78;;
53875;SDS011;39789;53.216;5.624;2023-02-15T01:08:08;939.33;;;78.85;;
53875;SDS011;39789;53.216;5.624;2023-02-15T01:10:34;1114.32;;;94.95;;
53875;SDS011;39789;53.216;5.624;2023-02-15T01:13:00;992.47;;;81.32;;
53875;SDS011;39789;53.216;5.624;2023-02-15T01:15:26;1008.65;;;82.72;;
53875;SDS011;39789;53.216;5.624;2023-02-15T01:17:52;846.03;;;75.95;;
53875;SDS011;39789;53.216;5.624;2023-02-15T01:20:22;1011.88;;;83.00;;
53875;SDS011;39789;53.216;5.624;2023-02-15T01:22:51;1066.00;;;88.75;;
53875;SDS011;39789;53.216;5.624;2023-02-15T01:25:18;1065.90;;;85.47;;
53875;SDS011;39789;53.216;5.624;2023-02-15T01:27:44;916.70;;;73.82;;
53875;SDS011;39789;53.216;5.624;2023-02-15T01:30:11;938.42;;;71.47;;
53875;SDS011;39789;53.216;5.624;2023-02-15T01:32:38;858.80;;;72.07;;
53875;SDS011;39789;53.216;5.624;2023-02-15T01:35:03;985.95;;;76.15;;
53875;SDS011;39789;53.216;5.624;2023-02-15T01:37:32;813.55;;;64.97;;
53875;SDS011;39789;53.216;5.624;2023-02-15T01:39:59;848.70;;;73.68;;
53875;SDS011;39789;53.216;5.624;2023-02-15T01:42:26;664.72;;;56.88;;
53875;SDS011;39789;53.216;5.624;2023-02-15T01:52:40;704.38;;;62.30;;
53875;SDS011;39789;53.216;5.624;2023-02-15T01:55:10;555.85;;;50.33;;
53875;SDS011;39789;53.216;5.624;2023-02-15T01:57:37;424.85;;;42.45;;
53875;SDS011;39789;53.216;5.624;2023-02-15T02:00:04;332.13;;;39.50;;
53875;SDS011;39789;53.216;5.624;2023-02-15T02:02:31;386.70;;;42.47;;
53875;SDS011;39789;53.216;5.624;2023-02-15T02:05:00;215.77;;;32.20;;
53875;SDS011;39789;53.216;5.624;2023-02-15T02:07:32;269.73;;;35.08;;
53875;SDS011;39789;53.216;5.624;2023-02-15T02:10:04;177.93;;;32.08;;
53875;SDS011;39789;53.216;5.624;2023-02-15T02:12:30;329.42;;;38.92;;
53875;SDS011;39789;53.216;5.624;2023-02-15T02:14:57;243.90;;;37.90;;
53875;SDS011;39789;53.216;5.624;2023-02-15T02:20:17;307.27;;;39.92;;
53875;SDS011;39789;53.216;5.624;2023-02-15T02:35:00;503.48;;;51.03;;
53875;SDS011;39789;53.216;5.624;2023-02-15T02:41:00;532.42;;;50.65;;
53875;SDS011;39789;53.216;5.624;2023-02-15T02:47:09;606.40;;;55.13;;
53875;SDS011;39789;53.216;5.624;2023-02-15T02:49:39;468.50;;;46.63;;
53875;SDS011;39789;53.216;5.624;2023-02-15T02:52:31;637.63;;;62.53;;
53875;SDS011;39789;53.216;5.624;2023-02-15T02:55:03;580.28;;;54.78;;
53875;SDS011;39789;53.216;5.624;2023-02-15T02:57:32;472.63;;;47.05;;
53875;SDS011;39789;53.216;5.624;2023-02-15T03:00:02;669.28;;;60.97;;
53875;SDS011;39789;53.216;5.624;2023-02-15T03:02:30;675.88;;;58.97;;
53875;SDS011;39789;53.216;5.624;2023-02-15T03:05:01;641.28;;;59.13;;
53875;SDS011;39789;53.216;5.624;2023-02-15T03:07:31;650.80;;;63.17;;
53875;SDS011;39789;53.216;5.624;2023-02-15T03:09:58;630.22;;;55.17;;
53875;SDS011;39789;53.216;5.624;2023-02-15T03:12:28;445.85;;;44.70;;
53875;SDS011;39789;53.216;5.624;2023-02-15T03:15:04;590.70;;;52.75;;
53875;SDS011;39789;53.216;5.624;2023-02-15T03:17:44;727.17;;;66.72;;
53875;SDS011;39789;53.216;5.624;2023-02-15T03:22:46;618.92;;;55.22;;
53875;SDS011;39789;53.216;5.624;2023-02-15T03:25:20;355.73;;;37.78;;
53875;SDS011;39789;53.216;5.624;2023-02-15T03:27:53;334.83;;;35.45;;
53875;SDS011;39789;53.216;5.624;2023-02-15T03:30:24;507.55;;;49.50;;
53875;SDS011;39789;53.216;5.624;2023-02-15T03:32:51;412.40;;;40.03;;
53875;SDS011;39789;53.216;5.624;2023-02-15T03:35:19;462.60;;;44.30;;
53875;SDS011;39789;53.216;5.624;2023-02-15T03:37:54;340.40;;;35.47;;
53875;SDS011;39789;53.216;5.624;2023-02-15T03:40:30;113.82;;;27.35;;
53875;SDS011;39789;53.216;5.624;2023-02-15T03:43:33;134.10;;;26.67;;
53875;SDS011;39789;53.216;5.624;2023-02-15T03:46:21;102.68;;;24.80;;
53875;SDS011;39789;53.216;5.624;2023-02-15T03:49:24;213.52;;;30.35;;
53875;SDS011;39789;53.216;5.624;2023-02-15T03:52:09;201.57;;;29.35;;
53875;SDS011;39789;53.216;5.624;2023-02-15T03:54:37;247.05;;;34.05;;
53875;SDS011;39789;53.216;5.624;2023-02-15T03:57:07;275.38;;;37.53;;
53875;SDS011;39789;53.216;5.624;2023-02-15T03:59:59;383.42;;;40.20;;
53875;SDS011;39789;53.216;5.624;2023-02-15T04:02:55;617.25;;;54.55;;
53875;SDS011;39789;53.216;5.624;2023-02-15T04:05:34;536.60;;;50.67;;
53875;SDS011;39789;53.216;5.624;2023-02-15T04:08:00;422.88;;;45.13;;
53875;SDS011;39789;53.216;5.624;2023-02-15T04:10:26;341.88;;;42.53;;
53875;SDS011;39789;53.216;5.624;2023-02-15T04:13:10;453.23;;;46.13;;
53875;SDS011;39789;53.216;5.624;2023-02-15T04:15:35;270.73;;;38.22;;
53875;SDS011;39789;53.216;5.624;2023-02-15T04:18:24;239.35;;;34.88;;
53875;SDS011;39789;53.216;5.624;2023-02-15T04:21:08;447.00;;;43.73;;
53875;SDS011;39789;53.216;5.624;2023-02-15T04:23:52;340.02;;;37.65;;
53875;SDS011;39789;53.216;5.624;2023-02-15T04:26:36;361.93;;;39.77;;
53875;SDS011;39789;53.216;5.624;2023-02-15T04:29:02;235.32;;;36.10;;
53875;SDS011;39789;53.216;5.624;2023-02-15T04:31:27;308.10;;;36.85;;
53875;SDS011;39789;53.216;5.624;2023-02-15T04:33:53;218.68;;;34.38;;
53875;SDS011;39789;53.216;5.624;2023-02-15T04:36:18;190.32;;;30.40;;
53875;SDS011;39789;53.216;5.624;2023-02-15T04:38:44;138.65;;;28.75;;
53875;SDS011;39789;53.216;5.624;2023-02-15T04:41:09;126.78;;;25.27;;
53875;SDS011;39789;53.216;5.624;2023-02-15T04:43:37;148.70;;;27.98;;
53875;SDS011;39789;53.216;5.624;2023-02-15T04:46:02;178.10;;;30.63;;
53875;SDS011;39789;53.216;5.624;2023-02-15T04:48:28;117.72;;;27.58;;
53875;SDS011;39789;53.216;5.624;2023-02-15T04:50:54;104.45;;;28.30;;
53875;SDS011;39789;53.216;5.624;2023-02-15T04:53:20;137.90;;;31.25;;
53875;SDS011;39789;53.216;5.624;2023-02-15T04:55:45;196.43;;;33.25;;
53875;SDS011;39789;53.216;5.624;2023-02-15T04:58:11;148.70;;;31.05;;
53875;SDS011;39789;53.216;5.624;2023-02-15T05:00:36;150.82;;;29.90;;
53875;SDS011;39789;53.216;5.624;2023-02-15T05:03:02;148.38;;;30.35;;
53875;SDS011;39789;53.216;5.624;2023-02-15T05:05:28;220.65;;;33.47;;
53875;SDS011;39789;53.216;5.624;2023-02-15T05:07:53;290.33;;;34.83;;
53875;SDS011;39789;53.216;5.624;2023-02-15T05:10:19;327.10;;;38.42;;
53875;SDS011;39789;53.216;5.624;2023-02-15T05:12:45;152.82;;;32.63;;
53875;SDS011;39789;53.216;5.624;2023-02-15T05:15:10;171.05;;;31.30;;
53875;SDS011;39789;53.216;5.624;2023-02-15T05:17:36;149.65;;;30.27;;
53875;SDS011;39789;53.216;5.624;2023-02-15T05:20:02;125.85;;;29.23;;
53875;SDS011;39789;53.216;5.624;2023-02-15T05:22:28;82.25;;;27.88;;
53875;SDS011;39789;53.216;5.624;2023-02-15T05:24:54;191.10;;;31.42;;
53875;SDS011;39789;53.216;5.624;2023-02-15T05:27:38;132.68;;;31.98;;
53875;SDS011;39789;53.216;5.624;2023-02-15T05:30:22;115.43;;;28.00;;
53875;SDS011;39789;53.216;5.624;2023-02-15T05:32:48;75.07;;;28.55;;
53875;SDS011;39789;53.216;5.624;2023-02-15T05:35:16;117.95;;;31.50;;
53875;SDS011;39789;53.216;5.624;2023-02-15T05:37:42;95.82;;;30.90;;
53875;SDS011;39789;53.216;5.624;2023-02-15T05:40:08;87.68;;;30.85;;
53875;SDS011;39789;53.216;5.624;2023-02-15T05:42:34;100.15;;;29.70;;
53875;SDS011;39789;53.216;5.624;2023-02-15T05:44:59;98.10;;;29.73;;
53875;SDS011;39789;53.216;5.624;2023-02-15T05:47:25;64.80;;;28.88;;
53875;SDS011;39789;53.216;5.624;2023-02-15T05:49:51;83.18;;;29.92;;
53875;SDS011;39789;53.216;5.624;2023-02-15T05:52:16;86.70;;;32.85;;
53875;SDS011;39789;53.216;5.624;2023-02-15T05:54:42;97.80;;;33.03;;
53875;SDS011;39789;53.216;5.624;2023-02-15T05:57:08;130.30;;;35.42;;
53875;SDS011;39789;53.216;5.624;2023-02-15T05:59:33;124.40;;;35.00;;
53875;SDS011;39789;53.216;5.624;2023-02-15T06:01:59;165.65;;;39.33;;
53875;SDS011;39789;53.216;5.624;2023-02-15T06:04:24;146.13;;;38.45;;
53875;SDS011;39789;53.216;5.624;2023-02-15T06:06:50;185.90;;;38.60;;
53875;SDS011;39789;53.216;5.624;2023-02-15T06:09:15;232.27;;;39.22;;
53875;SDS011;39789;53.216;5.624;2023-02-15T06:11:43;224.38;;;38.72;;
53875;SDS011;39789;53.216;5.624;2023-02-15T06:14:09;117.82;;;35.08;;
53875;SDS011;39789;53.216;5.624;2023-02-15T06:16:35;113.93;;;33.53;;
53875;SDS011;39789;53.216;5.624;2023-02-15T06:19:01;111.50;;;34.63;;
53875;SDS011;39789;53.216;5.624;2023-02-15T06:21:27;113.63;;;34.05;;
53875;SDS011;39789;53.216;5.624;2023-02-15T06:23:53;222.52;;;42.83;;
53875;SDS011;39789;53.216;5.624;2023-02-15T06:26:19;206.98;;;42.38;;
53875;SDS011;39789;53.216;5.624;2023-02-15T06:28:44;212.90;;;42.53;;
53875;SDS011;39789;53.216;5.624;2023-02-15T06:31:10;232.15;;;42.78;;
53875;SDS011;39789;53.216;5.624;2023-02-15T06:33:35;181.65;;;40.58;;
53875;SDS011;39789;53.216;5.624;2023-02-15T06:36:01;199.90;;;40.03;;
53875;SDS011;39789;53.216;5.624;2023-02-15T06:38:28;202.93;;;41.22;;
53875;SDS011;39789;53.216;5.624;2023-02-15T06:40:54;216.07;;;40.25;;
53875;SDS011;39789;53.216;5.624;2023-02-15T06:43:20;190.98;;;41.67;;
53875;SDS011;39789;53.216;5.624;2023-02-15T06:45:45;156.00;;;39.58;;
53875;SDS011;39789;53.216;5.624;2023-02-15T06:48:11;205.27;;;41.78;;
53875;SDS011;39789;53.216;5.624;2023-02-15T06:50:36;231.48;;;40.42;;
53875;SDS011;39789;53.216;5.624;2023-02-15T06:53:02;201.90;;;42.05;;
53875;SDS011;39789;53.216;5.624;2023-02-15T06:55:28;251.32;;;44.50;;
53875;SDS011;39789;53.216;5.624;2023-02-15T06:57:53;220.88;;;40.25;;
53875;SDS011;39789;53.216;5.624;2023-02-15T07:00:19;232.05;;;41.42;;
53875;SDS011;39789;53.216;5.624;2023-02-15T07:02:47;215.55;;;44.22;;
53875;SDS011;39789;53.216;5.624;2023-02-15T07:05:12;165.55;;;38.50;;
53875;SDS011;39789;53.216;5.624;2023-02-15T07:07:38;161.77;;;37.00;;
53875;SDS011;39789;53.216;5.624;2023-02-15T07:10:04;177.52;;;40.33;;
53875;SDS011;39789;53.216;5.624;2023-02-15T07:12:30;136.95;;;38.45;;
53875;SDS011;39789;53.216;5.624;2023-02-15T07:15:12;205.13;;;42.67;;
53875;SDS011;39789;53.216;5.624;2023-02-15T07:17:40;167.20;;;40.63;;
53875;SDS011;39789;53.216;5.624;2023-02-15T07:20:16;125.68;;;37.15;;
53875;SDS011;39789;53.216;5.624;2023-02-15T07:22:46;150.15;;;40.75;;
53875;SDS011;39789;53.216;5.624;2023-02-15T07:25:12;223.70;;;41.85;;
53875;SDS011;39789;53.216;5.624;2023-02-15T07:27:38;149.43;;;38.35;;
53875;SDS011;39789;53.216;5.624;2023-02-15T07:30:04;156.15;;;38.53;;
53875;SDS011;39789;53.216;5.624;2023-02-15T07:32:31;178.48;;;39.05;;
53875;SDS011;39789;53.216;5.624;2023-02-15T07:34:58;131.07;;;38.38;;
53875;SDS011;39789;53.216;5.624;2023-02-15T07:37:23;111.35;;;36.20;;
53875;SDS011;39789;53.216;5.624;2023-02-15T07:39:49;102.18;;;35.92;;
53875;SDS011;39789;53.216;5.624;2023-02-15T07:42:15;124.80;;;37.45;;
53875;SDS011;39789;53.216;5.624;2023-02-15T07:44:40;116.45;;;40.00;;
53875;SDS011;39789;53.216;5.624;2023-02-15T07:47:06;107.53;;;38.63;;
53875;SDS011;39789;53.216;5.624;2023-02-15T07:49:31;92.95;;;37.83;;
53875;SDS011;39789;53.216;5.624;2023-02-15T07:51:58;84.07;;;35.20;;
53875;SDS011;39789;53.216;5.624;2023-02-15T07:54:25;76.93;;;36.47;;
53875;SDS011;39789;53.216;5.624;2023-02-15T07:56:51;82.60;;;37.35;;
53875;SDS011;39789;53.216;5.624;2023-02-15T07:59:16;82.75;;;35.88;;
53875;SDS011;39789;53.216;5.624;2023-02-15T08:01:42;71.55;;;38.95;;
53875;SDS011;39789;53.216;5.624;2023-02-15T08:04:08;72.22;;;36.65;;
53875;SDS011;39789;53.216;5.624;2023-02-15T08:06:36;77.75;;;39.35;;
53875;SDS011;39789;53.216;5.624;2023-02-15T08:09:06;65.72;;;36.97;;
53875;SDS011;39789;53.216;5.624;2023-02-15T08:11:34;64.72;;;37.78;;
53875;SDS011;39789;53.216;5.624;2023-02-15T08:14:07;74.63;;;40.95;;
53875;SDS011;39789;53.216;5.624;2023-02-15T08:19:06;61.80;;;40.50;;
53875;SDS011;39789;53.216;5.624;2023-02-15T08:21:34;67.65;;;42.05;;
53875;SDS011;39789;53.216;5.624;2023-02-15T08:24:02;64.70;;;41.63;;
53875;SDS011;39789;53.216;5.624;2023-02-15T08:26:28;66.28;;;40.28;;
53875;SDS011;39789;53.216;5.624;2023-02-15T08:28:55;77.25;;;45.10;;
53875;SDS011;39789;53.216;5.624;2023-02-15T08:31:21;72.85;;;43.22;;
53875;SDS011;39789;53.216;5.624;2023-02-15T08:33:48;71.18;;;45.13;;
53875;SDS011;39789;53.216;5.624;2023-02-15T08:36:16;72.57;;;43.80;;
53875;SDS011;39789;53.216;5.624;2023-02-15T08:38:43;70.00;;;45.40;;
53875;SDS011;39789;53.216;5.624;2023-02-15T08:41:14;79.18;;;48.05;;
53875;SDS011;39789;53.216;5.624;2023-02-15T08:43:41;77.18;;;47.25;;
53875;SDS011;39789;53.216;5.624;2023-02-15T08:46:08;76.50;;;44.58;;
53875;SDS011;39789;53.216;5.624;2023-02-15T08:48:34;80.20;;;47.72;;
53875;SDS011;39789;53.216;5.624;2023-02-15T08:51:11;87.53;;;52.55;;
53875;SDS011;39789;53.216;5.624;2023-02-15T08:53:39;93.32;;;53.08;;
53875;SDS011;39789;53.216;5.624;2023-02-15T08:56:06;98.03;;;58.42;;
53875;SDS011;39789;53.216;5.624;2023-02-15T08:58:33;88.63;;;50.05;;
53875;SDS011;39789;53.216;5.624;2023-02-15T09:00:59;84.13;;;48.90;;
53875;SDS011;39789;53.216;5.624;2023-02-15T09:03:27;82.00;;;45.38;;
53875;SDS011;39789;53.216;5.624;2023-02-15T09:05:57;79.82;;;46.10;;
53875;SDS011;39789;53.216;5.624;2023-02-15T09:08:25;80.70;;;45.72;;
53875;SDS011;39789;53.216;5.624;2023-02-15T09:10:50;82.53;;;45.35;;
53875;SDS011;39789;53.216;5.624;2023-02-15T09:13:16;72.57;;;45.22;;
53875;SDS011;39789;53.216;5.624;2023-02-15T09:15:41;78.60;;;44.50;;
53875;SDS011;39789;53.216;5.624;2023-02-15T09:18:07;80.53;;;44.60;;
53875;SDS011;39789;53.216;5.624;2023-02-15T09:20:36;73.40;;;44.30;;
53875;SDS011;39789;53.216;5.624;2023-02-15T09:23:01;67.68;;;39.25;;
53875;SDS011;39789;53.216;5.624;2023-02-15T09:25:27;76.75;;;44.08;;
53875;SDS011;39789;53.216;5.624;2023-02-15T09:27:53;78.03;;;42.80;;
53875;SDS011;39789;53.216;5.624;2023-02-15T09:30:18;70.20;;;43.33;;
53875;SDS011;39789;53.216;5.624;2023-02-15T09:32:44;80.25;;;44.15;;
53875;SDS011;39789;53.216;5.624;2023-02-15T09:35:12;76.13;;;45.30;;
53875;SDS011;39789;53.216;5.624;2023-02-15T09:37:38;80.05;;;46.08;;
53875;SDS011;39789;53.216;5.624;2023-02-15T09:40:04;94.65;;;49.50;;
53875;SDS011;39789;53.216;5.624;2023-02-15T09:42:45;87.55;;;48.83;;
53875;SDS011;39789;53.216;5.624;2023-02-15T09:45:54;82.57;;;48.15;;
53875;SDS011;39789;53.216;5.624;2023-02-15T09:48:39;90.28;;;49.35;;
53875;SDS011;39789;53.216;5.624;2023-02-15T09:51:12;81.32;;;46.58;;
53875;SDS011;39789;53.216;5.624;2023-02-15T09:54:00;87.57;;;47.00;;
53875;SDS011;39789;53.216;5.624;2023-02-15T09:56:48;88.53;;;49.08;;
53875;SDS011;39789;53.216;5.624;2023-02-15T10:02:02;91.68;;;48.58;;
53875;SDS011;39789;53.216;5.624;2023-02-15T10:10:24;88.05;;;47.75;;
53875;SDS011;39789;53.216;5.624;2023-02-15T10:13:23;85.10;;;46.55;;
53875;SDS011;39789;53.216;5.624;2023-02-15T10:16:19;90.13;;;46.90;;
53875;SDS011;39789;53.216;5.624;2023-02-15T10:19:12;85.72;;;45.45;;
53875;SDS011;39789;53.216;5.624;2023-02-15T10:24:39;75.45;;;43.30;;
53875;SDS011;39789;53.216;5.624;2023-02-15T10:27:12;75.75;;;44.05;;
53875;SDS011;39789;53.216;5.624;2023-02-15T10:29:49;73.40;;;41.72;;
53875;SDS011;39789;53.216;5.624;2023-02-15T10:32:26;79.15;;;42.38;;
53875;SDS011;39789;53.216;5.624;2023-02-15T10:34:58;75.60;;;40.10;;
53875;SDS011;39789;53.216;5.624;2023-02-15T10:40:46;64.97;;;35.92;;
53875;SDS011;39789;53.216;5.624;2023-02-15T10:51:39;55.80;;;33.42;;
53875;SDS011;39789;53.216;5.624;2023-02-15T10:59:53;59.20;;;32.78;;
53875;SDS011;39789;53.216;5.624;2023-02-15T11:02:44;51.70;;;31.10;;
53875;SDS011;39789;53.216;5.624;2023-02-15T11:08:07;52.72;;;31.83;;
53875;SDS011;39789;53.216;5.624;2023-02-15T11:13:11;53.58;;;32.95;;
53875;SDS011;39789;53.216;5.624;2023-02-15T11:23:21;48.67;;;32.13;;
53875;SDS011;39789;53.216;5.624;2023-02-15T11:25:54;55.70;;;33.88;;
53875;SDS011;39789;53.216;5.624;2023-02-15T11:28:33;52.90;;;33.15;;
53875;SDS011;39789;53.216;5.624;2023-02-15T11:31:04;50.58;;;33.17;;
53875;SDS011;39789;53.216;5.624;2023-02-15T11:33:46;53.03;;;32.75;;
53875;SDS011;39789;53.216;5.624;2023-02-15T11:36:24;57.78;;;35.22;;
53875;SDS011;39789;53.216;5.624;2023-02-15T11:38:56;52.20;;;31.80;;
53875;SDS011;39789;53.216;5.624;2023-02-15T11:41:41;54.78;;;32.88;;
53875;SDS011;39789;53.216;5.624;2023-02-15T11:46:58;56.03;;;35.30;;
53875;SDS011;39789;53.216;5.624;2023-02-15T11:49:33;62.88;;;36.30;;
53875;SDS011;39789;53.216;5.624;2023-02-15T11:52:05;64.13;;;38.53;;
53875;SDS011;39789;53.216;5.624;2023-02-15T11:54:36;53.83;;;34.47;;
53875;SDS011;39789;53.216;5.624;2023-02-15T11:57:11;58.80;;;37.08;;
53875;SDS011;39789;53.216;5.624;2023-02-15T11:59:45;58.63;;;37.55;;
53875;SDS011;39789;53.216;5.624;2023-02-15T12:02:17;55.90;;;34.72;;
53875;SDS011;39789;53.216;5.624;2023-02-15T12:04:55;58.90;;;37.10;;
53875;SDS011;39789;53.216;5.624;2023-02-15T12:07:32;56.28;;;35.10;;
53875;SDS011;39789;53.216;5.624;2023-02-15T12:13:07;62.05;;;36.67;;
53875;SDS011;39789;53.216;5.624;2023-02-15T12:15:41;63.42;;;36.20;;
53875;SDS011;39789;53.216;5.624;2023-02-15T12:18:17;52.50;;;34.40;;
53875;SDS011;39789;53.216;5.624;2023-02-15T12:21:04;60.38;;;36.65;;
53875;SDS011;39789;53.216;5.624;2023-02-15T12:23:41;54.10;;;35.85;;
53875;SDS011;39789;53.216;5.624;2023-02-15T12:26:13;54.53;;;35.08;;
53875;SDS011;39789;53.216;5.624;2023-02-15T12:28:43;51.75;;;33.88;;
53875;SDS011;39789;53.216;5.624;2023-02-15T12:31:21;54.28;;;34.20;;
53875;SDS011;39789;53.216;5.624;2023-02-15T12:33:50;53.47;;;35.28;;
53875;SDS011;39789;53.216;5.624;2023-02-15T12:36:19;54.00;;;33.83;;
53875;SDS011;39789;53.216;5.624;2023-02-15T12:42:02;49.85;;;32.42;;
53875;SDS011;39789;53.216;5.624;2023-02-15T12:47:29;52.30;;;33.20;;
53875;SDS011;39789;53.216;5.624;2023-02-15T12:50:07;53.78;;;33.28;;
53875;SDS011;39789;53.216;5.624;2023-02-15T12:52:44;55.97;;;32.15;;
53875;SDS011;39789;53.216;5.624;2023-02-15T12:55:45;54.20;;;31.73;;
53875;SDS011;39789;53.216;5.624;2023-02-15T13:00:43;52.30;;;33.22;;
53875;SDS011;39789;53.216;5.624;2023-02-15T13:03:21;56.22;;;33.03;;
53875;SDS011;39789;53.216;5.624;2023-02-15T13:05:51;51.55;;;32.17;;
53875;SDS011;39789;53.216;5.624;2023-02-15T13:08:21;51.63;;;33.63;;
53875;SDS011;39789;53.216;5.624;2023-02-15T13:10:57;51.15;;;32.50;;
53875;SDS011;39789;53.216;5.624;2023-02-15T13:13:58;49.55;;;31.75;;
53875;SDS011;39789;53.216;5.624;2023-02-15T13:16:30;53.88;;;33.35;;
53875;SDS011;39789;53.216;5.624;2023-02-15T13:19:12;45.83;;;30.52;;
53875;SDS011;39789;53.216;5.624;2023-02-15T13:21:43;47.97;;;30.95;;
53875;SDS011;39789;53.216;5.624;2023-02-15T13:26:44;50.28;;;32.08;;
53875;SDS011;39789;53.216;5.624;2023-02-15T13:29:15;59.50;;;32.83;;
53875;SDS011;39789;53.216;5.624;2023-02-15T13:31:46;55.40;;;33.53;;
53875;SDS011;39789;53.216;5.624;2023-02-15T13:34:14;59.78;;;35.67;;
53875;SDS011;39789;53.216;5.624;2023-02-15T13:42:20;52.47;;;34.22;;
53875;SDS011;39789;53.216;5.624;2023-02-15T13:48:00;53.00;;;33.95;;
53875;SDS011;39789;53.216;5.624;2023-02-15T13:53:46;48.45;;;31.92;;
53875;SDS011;39789;53.216;5.624;2023-02-15T13:59:54;55.35;;;33.75;;
53875;SDS011;39789;53.216;5.624;2023-02-15T14:05:15;51.72;;;33.80;;
53875;SDS011;39789;53.216;5.624;2023-02-15T14:08:11;53.67;;;32.53;;
53875;SDS011;39789;53.216;5.624;2023-02-15T14:19:20;49.78;;;33.33;;
53875;SDS011;39789;53.216;5.624;2023-02-15T14:29:56;50.38;;;33.22;;
53875;SDS011;39789;53.216;5.624;2023-02-15T14:32:29;46.50;;;31.27;;
53875;SDS011;39789;53.216;5.624;2023-02-15T14:35:12;54.33;;;34.47;;
53875;SDS011;39789;53.216;5.624;2023-02-15T14:37:50;50.75;;;34.00;;
53875;SDS011;39789;53.216;5.624;2023-02-15T14:40:57;52.72;;;32.42;;
53875;SDS011;39789;53.216;5.624;2023-02-15T14:46:52;57.90;;;34.33;;
53875;SDS011;39789;53.216;5.624;2023-02-15T14:49:27;48.70;;;33.30;;
53875;SDS011;39789;53.216;5.624;2023-02-15T14:51:58;54.15;;;33.88;;
53875;SDS011;39789;53.216;5.624;2023-02-15T15:00:24;52.00;;;33.72;;
53875;SDS011;39789;53.216;5.624;2023-02-15T15:12:48;55.13;;;34.22;;
53875;SDS011;39789;53.216;5.624;2023-02-15T15:17:55;52.75;;;33.88;;
53875;SDS011;39789;53.216;5.624;2023-02-15T15:25:42;55.28;;;34.17;;
53875;SDS011;39789;53.216;5.624;2023-02-15T15:31:02;54.38;;;35.47;;
53875;SDS011;39789;53.216;5.624;2023-02-15T15:33:54;49.10;;;33.03;;
53875;SDS011;39789;53.216;5.624;2023-02-15T15:50:38;55.40;;;36.17;;
53875;SDS011;39789;53.216;5.624;2023-02-15T15:53:05;53.10;;;35.88;;
53875;SDS011;39789;53.216;5.624;2023-02-15T15:55:37;55.70;;;37.40;;
53875;SDS011;39789;53.216;5.624;2023-02-15T15:58:05;57.13;;;36.17;;
53875;SDS011;39789;53.216;5.624;2023-02-15T16:00:34;53.53;;;34.92;;
53875;SDS011;39789;53.216;5.624;2023-02-15T16:05:45;62.60;;;38.05;;
53875;SDS011;39789;53.216;5.624;2023-02-15T16:08:10;59.08;;;37.90;;
53875;SDS011;39789;53.216;5.624;2023-02-15T16:10:36;59.20;;;38.28;;
53875;SDS011;39789;53.216;5.624;2023-02-15T16:13:04;62.53;;;38.92;;
53875;SDS011;39789;53.216;5.624;2023-02-15T16:18:01;60.75;;;38.13;;
53875;SDS011;39789;53.216;5.624;2023-02-15T16:20:34;63.53;;;39.50;;
53875;SDS011;39789;53.216;5.624;2023-02-15T16:28:56;62.88;;;40.10;;
53875;SDS011;39789;53.216;5.624;2023-02-15T16:31:22;60.47;;;39.33;;
53875;SDS011;39789;53.216;5.624;2023-02-15T16:33:48;64.65;;;40.42;;
53875;SDS011;39789;53.216;5.624;2023-02-15T16:36:21;62.50;;;39.65;;
53875;SDS011;39789;53.216;5.624;2023-02-15T16:41:21;67.38;;;40.55;;
53875;SDS011;39789;53.216;5.624;2023-02-15T16:43:52;68.57;;;42.22;;
53875;SDS011;39789;53.216;5.624;2023-02-15T16:46:23;65.50;;;42.78;;
53875;SDS011;39789;53.216;5.624;2023-02-15T16:48:53;65.97;;;43.08;;
53875;SDS011;39789;53.216;5.624;2023-02-15T16:51:24;66.30;;;42.15;;
53875;SDS011;39789;53.216;5.624;2023-02-15T16:53:52;66.65;;;42.13;;
53875;SDS011;39789;53.216;5.624;2023-02-15T16:56:26;66.03;;;43.35;;
53875;SDS011;39789;53.216;5.624;2023-02-15T16:58:55;70.50;;;42.38;;
53875;SDS011;39789;53.216;5.624;2023-02-15T17:01:23;66.88;;;43.20;;
53875;SDS011;39789;53.216;5.624;2023-02-15T17:04:10;65.80;;;42.67;;
53875;SDS011;39789;53.216;5.624;2023-02-15T17:09:25;71.25;;;45.72;;
53875;SDS011;39789;53.216;5.624;2023-02-15T17:11:51;70.35;;;46.17;;
53875;SDS011;39789;53.216;5.624;2023-02-15T17:14:21;70.65;;;43.05;;
53875;SDS011;39789;53.216;5.624;2023-02-15T17:16:58;72.72;;;44.83;;
53875;SDS011;39789;53.216;5.624;2023-02-15T17:19:31;66.82;;;43.15;;
53875;SDS011;39789;53.216;5.624;2023-02-15T17:22:05;64.50;;;44.65;;
53875;SDS011;39789;53.216;5.624;2023-02-15T17:24:39;70.63;;;45.35;;
53875;SDS011;39789;53.216;5.624;2023-02-15T17:27:14;73.03;;;45.28;;
53875;SDS011;39789;53.216;5.624;2023-02-15T17:29:44;71.20;;;45.92;;
53875;SDS011;39789;53.216;5.624;2023-02-15T17:32:20;72.43;;;46.53;;
53875;SDS011;39789;53.216;5.624;2023-02-15T17:37:26;73.50;;;44.78;;
53875;SDS011;39789;53.216;5.624;2023-02-15T17:39:54;78.15;;;48.88;;
53875;SDS011;39789;53.216;5.624;2023-02-15T17:42:21;74.30;;;46.22;;
53875;SDS011;39789;53.216;5.624;2023-02-15T17:44:47;72.75;;;47.60;;
53875;SDS011;39789;53.216;5.624;2023-02-15T17:47:14;68.90;;;46.20;;
53875;SDS011;39789;53.216;5.624;2023-02-15T17:49:44;78.60;;;47.72;;